METAR AND TAF INFORMATION
METAR FOR LEVD
ADDS - METARS form results

(1108 UTC 23 May 2019)
Data provider http://aviationweather.gov/metar/data/
 
METAR text: LEVD 231100Z 29005KT 200V010 CAVOK 21/09 Q1018
Conditions at: LEVD (VALLADOLID(MIL/C, ES) observed 1100 UTC 23 May 2019
Temperature: 21.0°C (70°F)
Dewpoint: 9.0°C (48°F) [RH = 46%]
Pressure (altimeter): 30.06 inches Hg (1018.0 mb)
Winds: from the WNW (290 degrees) at 6 MPH (5 knots; 2.6 m/s)
Visibility: 6 or more miles (10+ km)
Ceiling: ceiling and visibility are OK
Clouds: unknown
Weather: no significant weather observed at this time

METAR text: LEVD 231030Z 31004KT CAVOK 20/10 Q1019
Conditions at: LEVD (VALLADOLID(MIL/C, ES) observed 1030 UTC 23 May 2019
Temperature: 20.0°C (68°F)
Dewpoint: 10.0°C (50°F) [RH = 53%]
Pressure (altimeter): 30.09 inches Hg (1019.0 mb)
Winds: from the NW (310 degrees) at 5 MPH (4 knots; 2.1 m/s)
Visibility: 6 or more miles (10+ km)
Ceiling: ceiling and visibility are OK
Clouds: unknown
Weather: no significant weather observed at this time

Forecast for: LEVD (VALLADOLID(MIL/C, ES)
Text: TAF LEVD 230500Z 2306/2406 VRB05KT CAVOK TX25/2316Z TN10/2306Z
Forecast period: 0600 to 1000 UTC 23 May 2019
Forecast type: FROM: standard forecast or significant change
Winds: variable direction winds at 6 MPH (5 knots; 2.6 m/s)
Visibility: 6 or more miles 10+ km)
Ceiling: unknown
Clouds: missing
Weather: no significant weather forecast for this period
Text: BECMG 2310/2312 27010KT
Forecast period: 1000 to 1900 UTC 23 May 2019
Forecast type: BECOMING: Conditions expected to become as follows by 1200 UTC 23 May 2019
Winds: from the W (270 degrees) at 12 MPH (10 knots; 5.1 m/s)
Visibility: 6 or more miles 10+ km)
Ceiling: unknown
Clouds: missing
Weather: no significant weather forecast for this period
Text: BECMG 2319/2321 03012KT
Forecast period: 1900 UTC 23 May 2019 to 0600 UTC 24 May 2019
Forecast type: BECOMING: Conditions expected to become as follows by 2100 UTC 23 May 2019
Winds: from the NNE (30 degrees) at 14 MPH (12 knots; 6.2 m/s)
Visibility: 6 or more miles 10+ km)
Ceiling: unknown
Clouds: missing
Weather: no significant weather forecast for this period

AIRPORT MAP

RUNWAY INFORMATION
Runway 05 Runway length 9843 ft Runway width 197 ft
Runway elevation 2768 ft Runway displaced threshold 0 ft Runway heading 45
Runway 23 Runway length 9843 ft Runway width 197 ft
Runway elevation 2775 ft Runway displaced threshold 0 ft Runway heading 225
Runway 15 Runway length 2976 ft Runway width 197 ft
Runway elevation 2770 ft Runway displaced threshold 0 ft Runway heading 144
Runway 33 Runway length 2976 ft Runway width 197 ft
Runway elevation 2771 ft Runway displaced threshold 0 ft Runway heading 324

AIRPORT FREQUENCIES
Type TWR Name TWR Frequency 122.2 MHZ

AIRPORT NEAR NAVIGATION AIDS
Type TACAN Name Valladolid Frequency 108200 KHZ
Type NDB Name Valladolid Frequency 342 KHZ